Time,TemperatureF,DewpointF,PressureIn,WindDirection,WindDirectionDegrees,WindSpeedMPH,WindSpeedGustMPH,Humidity,HourlyPrecipIn,Conditions,Clouds,dailyrainin,SoftwareType,DateUTC
2013-07-09 00:00:00,68.5,67.9,30.06,N/A,-737280,0.0,0.0,98,0.00,,,0.00,Wunderground v.1.13,2013-07-09 04:00:00,
2013-07-09 00:05:00,69.0,68.4,30.06,West,270,0.0,2.0,98,0.00,,,0.00,Wunderground v.1.13,2013-07-09 04:05:00,
2013-07-09 00:10:00,69.2,68.6,30.06,West,270,0.0,1.0,98,0.00,,,0.00,Wunderground v.1.13,2013-07-09 04:10:00,
2013-07-09 00:15:00,69.2,68.6,30.06,N/A,-737280,0.0,0.0,98,0.00,,,0.00,Wunderground v.1.13,2013-07-09 04:15:00,
2013-07-09 00:20:00,69.4,68.8,30.06,N/A,-737280,0.0,0.0,98,0.00,,,0.00,Wunderground v.1.13,2013-07-09 04:20:00,
2013-07-09 00:25:00,69.4,68.8,30.06,West,270,0.0,1.0,98,0.00,,,0.00,Wunderground v.1.13,2013-07-09 04:25:00,
2013-07-09 00:30:00,69.3,68.7,30.06,N/A,-737280,0.0,0.0,98,0.00,,,0.00,Wunderground v.1.13,2013-07-09 04:30:00,
2013-07-09 00:35:00,69.3,68.4,30.06,N/A,-737280,0.0,0.0,97,0.00,,,0.00,Wunderground v.1.13,2013-07-09 04:35:00,
2013-07-09 00:40:00,69.2,68.3,30.06,West,270,0.0,2.0,97,0.00,,,0.00,Wunderground v.1.13,2013-07-09 04:40:00,
2013-07-09 00:45:00,69.0,68.1,30.06,N/A,-737280,0.0,0.0,97,0.00,,,0.00,Wunderground v.1.13,2013-07-09 04:45:00,
2013-07-09 00:50:00,69.0,68.1,30.06,N/A,-737280,0.0,0.0,97,0.00,,,0.00,Wunderground v.1.13,2013-07-09 04:50:00,
2013-07-09 00:55:00,68.9,68.0,30.07,N/A,-737280,0.0,0.0,97,0.00,,,0.00,Wunderground v.1.13,2013-07-09 04:55:00,
2013-07-09 01:00:00,68.9,68.0,30.06,N/A,-737280,0.0,0.0,97,0.00,,,0.00,Wunderground v.1.13,2013-07-09 05:00:00,
2013-07-09 01:05:00,68.9,68.0,30.07,N/A,-737280,0.0,0.0,97,0.00,,,0.00,Wunderground v.1.13,2013-07-09 05:05:00,
2013-07-09 01:10:00,68.8,67.9,30.07,N/A,-737280,0.0,0.0,97,0.00,,,0.00,Wunderground v.1.13,2013-07-09 05:10:00,
2013-07-09 01:15:00,68.9,68.0,30.07,N/A,-737280,0.0,0.0,97,0.00,,,0.00,Wunderground v.1.13,2013-07-09 05:15:00,
2013-07-09 01:20:00,68.8,67.9,30.07,N/A,-737280,0.0,0.0,97,0.00,,,0.00,Wunderground v.1.13,2013-07-09 05:20:00,
2013-07-09 01:25:00,68.8,67.9,30.06,N/A,-737280,0.0,0.0,97,0.00,,,0.00,Wunderground v.1.13,2013-07-09 05:25:00,
2013-07-09 01:30:00,68.6,67.7,30.06,N/A,-737280,0.0,0.0,97,0.00,,,0.00,Wunderground v.1.13,2013-07-09 05:30:00,
2013-07-09 01:35:00,68.6,67.7,30.06,N/A,-737280,0.0,0.0,97,0.00,,,0.00,Wunderground v.1.13,2013-07-09 05:35:00,
2013-07-09 01:40:00,68.5,67.6,30.06,N/A,-737280,0.0,0.0,97,0.00,,,0.00,Wunderground v.1.13,2013-07-09 05:40:00,
2013-07-09 01:45:00,68.5,67.6,30.06,N/A,-737280,0.0,0.0,97,0.00,,,0.00,Wunderground v.1.13,2013-07-09 05:45:00,
2013-07-09 01:50:00,68.5,67.6,30.06,N/A,-737280,0.0,0.0,97,0.00,,,0.00,Wunderground v.1.13,2013-07-09 05:50:00,
2013-07-09 01:55:00,68.4,67.5,30.06,N/A,-737280,0.0,0.0,97,0.00,,,0.00,Wunderground v.1.13,2013-07-09 05:55:00,
2013-07-09 02:00:00,68.3,67.4,30.06,N/A,-737280,0.0,0.0,97,0.00,,,0.00,Wunderground v.1.13,2013-07-09 06:00:00,
2013-07-09 02:05:00,68.2,67.3,30.06,N/A,-737280,0.0,0.0,97,0.00,,,0.00,Wunderground v.1.13,2013-07-09 06:05:00,
2013-07-09 02:10:00,68.1,67.2,30.06,N/A,-737280,0.0,0.0,97,0.00,,,0.00,Wunderground v.1.13,2013-07-09 06:10:00,
2013-07-09 02:15:00,68.0,67.1,30.06,N/A,-737280,0.0,0.0,97,0.00,,,0.00,Wunderground v.1.13,2013-07-09 06:15:00,
2013-07-09 02:20:00,67.9,67.0,30.05,N/A,-737280,0.0,0.0,97,0.00,,,0.00,Wunderground v.1.13,2013-07-09 06:20:00,
2013-07-09 02:25:00,67.8,66.9,30.05,N/A,-737280,0.0,0.0,97,0.00,,,0.00,Wunderground v.1.13,2013-07-09 06:25:00,
2013-07-09 02:30:00,67.9,67.3,30.05,N/A,-737280,0.0,0.0,98,0.00,,,0.00,Wunderground v.1.13,2013-07-09 06:30:00,
2013-07-09 02:35:00,67.8,66.9,30.05,N/A,-737280,0.0,0.0,97,0.00,,,0.00,Wunderground v.1.13,2013-07-09 06:35:00,
2013-07-09 02:40:00,67.9,67.3,30.05,N/A,-737280,0.0,0.0,98,0.00,,,0.00,Wunderground v.1.13,2013-07-09 06:40:00,
2013-07-09 02:45:00,67.8,67.2,30.05,N/A,-737280,0.0,0.0,98,0.00,,,0.00,Wunderground v.1.13,2013-07-09 06:45:00,
2013-07-09 02:50:00,67.8,67.2,30.05,N/A,-737280,0.0,0.0,98,0.00,,,0.00,Wunderground v.1.13,2013-07-09 06:50:00,
2013-07-09 02:55:00,67.7,66.8,30.05,N/A,-737280,0.0,0.0,97,0.00,,,0.00,Wunderground v.1.13,2013-07-09 06:55:00,
2013-07-09 03:00:00,67.6,66.7,30.05,N/A,-737280,0.0,0.0,97,0.00,,,0.00,Wunderground v.1.13,2013-07-09 07:00:00,
2013-07-09 03:05:00,67.6,66.7,30.05,N/A,-737280,0.0,0.0,97,0.00,,,0.00,Wunderground v.1.13,2013-07-09 07:05:00,
2013-07-09 03:10:00,67.6,67.0,30.05,N/A,-737280,0.0,0.0,98,0.00,,,0.00,Wunderground v.1.13,2013-07-09 07:10:00,
2013-07-09 03:15:00,67.5,66.9,30.05,N/A,-737280,0.0,0.0,98,0.00,,,0.00,Wunderground v.1.13,2013-07-09 07:15:00,
2013-07-09 03:20:00,67.5,66.9,30.05,N/A,-737280,0.0,0.0,98,0.00,,,0.00,Wunderground v.1.13,2013-07-09 07:20:00,
2013-07-09 03:25:00,67.5,66.9,30.05,N/A,-737280,0.0,0.0,98,0.00,,,0.00,Wunderground v.1.13,2013-07-09 07:25:00,
2013-07-09 03:30:00,67.5,66.9,30.05,N/A,-737280,0.0,0.0,98,0.00,,,0.00,Wunderground v.1.13,2013-07-09 07:30:00,
2013-07-09 03:35:00,67.5,66.9,30.05,N/A,-737280,0.0,0.0,98,0.00,,,0.00,Wunderground v.1.13,2013-07-09 07:35:00,
2013-07-09 03:40:00,67.5,66.9,30.05,N/A,-737280,0.0,0.0,98,0.00,,,0.00,Wunderground v.1.13,2013-07-09 07:40:00,
2013-07-09 03:45:00,67.5,66.9,30.05,N/A,-737280,0.0,0.0,98,0.00,,,0.00,Wunderground v.1.13,2013-07-09 07:45:00,
2013-07-09 03:50:00,67.5,66.9,30.05,N/A,-737280,0.0,0.0,98,0.00,,,0.00,Wunderground v.1.13,2013-07-09 07:50:00,
2013-07-09 03:55:00,67.5,66.9,30.05,N/A,-737280,0.0,0.0,98,0.00,,,0.00,Wunderground v.1.13,2013-07-09 07:55:00,
2013-07-09 04:00:00,67.4,66.8,30.05,N/A,-737280,0.0,0.0,98,0.00,,,0.00,Wunderground v.1.13,2013-07-09 08:00:00,
2013-07-09 04:05:00,67.4,66.8,30.05,N/A,-737280,0.0,0.0,98,0.00,,,0.00,Wunderground v.1.13,2013-07-09 08:05:00,
2013-07-09 04:10:00,67.4,66.8,30.05,N/A,-737280,0.0,0.0,98,0.00,,,0.00,Wunderground v.1.13,2013-07-09 08:10:00,
2013-07-09 04:15:00,67.3,66.7,30.05,N/A,-737280,0.0,0.0,98,0.00,,,0.00,Wunderground v.1.13,2013-07-09 08:15:00,
2013-07-09 04:20:00,67.4,66.8,30.05,N/A,-737280,0.0,0.0,98,0.00,,,0.00,Wunderground v.1.13,2013-07-09 08:20:00,
2013-07-09 04:25:00,67.4,66.8,30.05,N/A,-737280,0.0,0.0,98,0.00,,,0.00,Wunderground v.1.13,2013-07-09 08:25:00,
2013-07-09 04:30:00,67.4,66.8,30.05,N/A,-737280,0.0,0.0,98,0.00,,,0.00,Wunderground v.1.13,2013-07-09 08:30:00,
2013-07-09 04:35:00,67.3,66.7,30.05,N/A,-737280,0.0,0.0,98,0.00,,,0.00,Wunderground v.1.13,2013-07-09 08:35:00,
2013-07-09 04:40:00,67.3,66.7,30.05,N/A,-737280,0.0,0.0,98,0.00,,,0.00,Wunderground v.1.13,2013-07-09 08:40:00,
2013-07-09 04:45:00,67.4,66.8,30.05,N/A,-737280,0.0,0.0,98,0.00,,,0.00,Wunderground v.1.13,2013-07-09 08:45:00,
2013-07-09 04:50:00,67.5,66.9,30.05,N/A,-737280,0.0,0.0,98,0.00,,,0.00,Wunderground v.1.13,2013-07-09 08:50:00,
2013-07-09 04:55:00,67.5,66.9,30.05,N/A,-737280,0.0,0.0,98,0.00,,,0.00,Wunderground v.1.13,2013-07-09 08:55:00,
2013-07-09 05:00:00,67.5,66.9,30.05,N/A,-737280,0.0,0.0,98,0.00,,,0.00,Wunderground v.1.13,2013-07-09 09:00:00,
2013-07-09 05:05:00,67.6,67.0,30.05,N/A,-737280,0.0,0.0,98,0.00,,,0.00,Wunderground v.1.13,2013-07-09 09:05:00,
2013-07-09 05:10:00,67.8,67.2,30.05,N/A,-737280,0.0,0.0,98,0.00,,,0.00,Wunderground v.1.13,2013-07-09 09:10:00,
2013-07-09 05:15:00,67.9,67.3,30.05,N/A,-737280,0.0,0.0,98,0.00,,,0.00,Wunderground v.1.13,2013-07-09 09:15:00,
2013-07-09 05:20:00,68.1,67.5,30.05,N/A,-737280,0.0,0.0,98,0.00,,,0.00,Wunderground v.1.13,2013-07-09 09:20:00,
2013-07-09 05:25:00,68.1,67.5,30.05,West,270,0.0,2.0,98,0.00,,,0.00,Wunderground v.1.13,2013-07-09 09:25:00,
2013-07-09 05:30:00,68.1,67.5,30.05,SW,225,0.0,1.0,98,0.00,,,0.00,Wunderground v.1.13,2013-07-09 09:30:00,
2013-07-09 05:35:00,68.3,67.7,30.05,SW,225,0.0,1.0,98,0.00,,,0.00,Wunderground v.1.13,2013-07-09 09:35:00,
2013-07-09 05:40:00,68.4,67.8,30.05,SW,225,0.0,1.0,98,0.00,,,0.00,Wunderground v.1.13,2013-07-09 09:40:00,
2013-07-09 05:45:00,68.5,67.9,30.04,N/A,-737280,0.0,0.0,98,0.00,,,0.00,Wunderground v.1.13,2013-07-09 09:45:00,
2013-07-09 05:50:00,68.7,68.1,30.04,SW,225,1.0,2.0,98,0.00,,,0.00,Wunderground v.1.13,2013-07-09 09:50:00,
2013-07-09 05:55:00,68.9,68.3,30.04,N/A,-737280,0.0,0.0,98,0.00,,,0.00,Wunderground v.1.13,2013-07-09 09:55:00,
2013-07-09 06:00:00,69.4,68.8,30.04,SW,225,0.0,1.0,98,0.00,,,0.00,Wunderground v.1.13,2013-07-09 10:00:00,
2013-07-09 06:05:00,69.3,68.7,30.04,N/A,-737280,0.0,0.0,98,0.00,,,0.00,Wunderground v.1.13,2013-07-09 10:05:00,
2013-07-09 06:10:00,69.4,68.5,30.03,N/A,-737280,0.0,0.0,97,0.00,,,0.00,Wunderground v.1.13,2013-07-09 10:10:00,
2013-07-09 06:15:00,69.4,68.5,30.03,N/A,-737280,0.0,0.0,97,0.00,,,0.00,Wunderground v.1.13,2013-07-09 10:15:00,
2013-07-09 06:20:00,69.3,68.4,30.03,N/A,-737280,0.0,0.0,97,0.00,,,0.00,Wunderground v.1.13,2013-07-09 10:20:00,
2013-07-09 06:25:00,69.2,68.3,30.03,N/A,-737280,0.0,0.0,97,0.00,,,0.00,Wunderground v.1.13,2013-07-09 10:25:00,
2013-07-09 06:30:00,69.1,68.2,30.03,N/A,-737280,0.0,0.0,97,0.00,,,0.00,Wunderground v.1.13,2013-07-09 10:30:00,
2013-07-09 06:35:00,69.1,68.2,30.04,N/A,-737280,0.0,0.0,97,0.00,,,0.00,Wunderground v.1.13,2013-07-09 10:35:00,
2013-07-09 06:40:00,69.3,68.7,30.04,N/A,-737280,0.0,0.0,98,0.00,,,0.00,Wunderground v.1.13,2013-07-09 10:40:00,
2013-07-09 06:45:00,69.5,68.9,30.03,N/A,-737280,0.0,0.0,98,0.00,,,0.00,Wunderground v.1.13,2013-07-09 10:45:00,
2013-07-09 06:50:00,69.6,69.0,30.04,N/A,-737280,0.0,0.0,98,0.00,,,0.00,Wunderground v.1.13,2013-07-09 10:50:00,
2013-07-09 06:55:00,69.6,68.7,30.03,N/A,-737280,0.0,0.0,97,0.00,,,0.00,Wunderground v.1.13,2013-07-09 10:55:00,
2013-07-09 07:00:00,69.7,68.8,30.03,N/A,-737280,0.0,0.0,97,0.00,,,0.00,Wunderground v.1.13,2013-07-09 11:00:00,
2013-07-09 07:05:00,70.0,69.4,30.03,N/A,-737280,0.0,0.0,98,0.00,,,0.00,Wunderground v.1.13,2013-07-09 11:05:00,
2013-07-09 07:10:00,70.1,69.2,30.04,N/A,-737280,0.0,0.0,97,0.00,,,0.00,Wunderground v.1.13,2013-07-09 11:10:00,
2013-07-09 07:15:00,70.1,69.2,30.04,N/A,-737280,0.0,0.0,97,0.00,,,0.00,Wunderground v.1.13,2013-07-09 11:15:00,
2013-07-09 07:20:00,69.8,68.9,30.04,N/A,-737280,0.0,0.0,97,0.00,,,0.00,Wunderground v.1.13,2013-07-09 11:20:00,
2013-07-09 07:25:00,69.8,68.9,30.04,N/A,-737280,0.0,0.0,97,0.00,,,0.00,Wunderground v.1.13,2013-07-09 11:25:00,
2013-07-09 07:30:00,69.6,68.7,30.04,SW,225,0.0,1.0,97,0.00,,,0.00,Wunderground v.1.13,2013-07-09 11:30:00,
2013-07-09 07:35:00,69.3,68.4,30.04,SW,225,0.0,2.0,97,0.00,,,0.00,Wunderground v.1.13,2013-07-09 11:35:00,
2013-07-09 07:40:00,69.0,68.1,30.04,SW,225,1.0,5.0,97,0.00,,,0.00,Wunderground v.1.13,2013-07-09 11:40:00,
2013-07-09 07:45:00,69.0,68.1,30.04,N/A,-737280,0.0,0.0,97,0.00,,,0.00,Wunderground v.1.13,2013-07-09 11:45:00,
2013-07-09 07:50:00,69.3,68.4,30.03,N/A,-737280,0.0,0.0,97,0.00,,,0.00,Wunderground v.1.13,2013-07-09 11:50:00,
2013-07-09 07:55:00,69.4,68.2,30.03,N/A,-737280,0.0,0.0,96,0.00,,,0.00,Wunderground v.1.13,2013-07-09 11:55:00,
2013-07-09 08:00:00,69.5,68.3,30.03,SW,225,1.0,3.0,96,0.00,,,0.00,Wunderground v.1.13,2013-07-09 12:00:00,
2013-07-09 08:05:00,69.7,68.5,30.03,SW,225,2.0,4.0,96,0.00,,,0.00,Wunderground v.1.13,2013-07-09 12:05:00,
2013-07-09 08:10:00,70.0,68.5,30.03,N/A,-737280,0.0,0.0,95,0.00,,,0.00,Wunderground v.1.13,2013-07-09 12:10:00,
2013-07-09 08:15:00,70.3,68.8,30.03,SW,225,0.0,1.0,95,0.00,,,0.00,Wunderground v.1.13,2013-07-09 12:15:00,
2013-07-09 08:20:00,70.4,68.6,30.03,SW,225,0.0,1.0,94,0.00,,,0.00,Wunderground v.1.13,2013-07-09 12:20:00,
2013-07-09 08:25:00,70.5,68.7,30.03,N/A,-737280,0.0,0.0,94,0.00,,,0.00,Wunderground v.1.13,2013-07-09 12:25:00,
2013-07-09 08:30:00,70.6,68.5,30.03,N/A,-737280,0.0,0.0,93,0.00,,,0.00,Wunderground v.1.13,2013-07-09 12:30:00,
2013-07-09 08:35:00,70.7,68.9,30.03,N/A,-737280,0.0,0.0,94,0.00,,,0.00,Wunderground v.1.13,2013-07-09 12:35:00,
2013-07-09 08:40:00,70.8,69.0,30.03,SW,225,0.0,1.0,94,0.00,,,0.00,Wunderground v.1.13,2013-07-09 12:40:00,
2013-07-09 08:45:00,70.7,68.9,30.03,N/A,-737280,0.0,0.0,94,0.00,,,0.00,Wunderground v.1.13,2013-07-09 12:45:00,
2013-07-09 08:50:00,70.8,69.0,30.03,SW,225,0.0,1.0,94,0.00,,,0.00,Wunderground v.1.13,2013-07-09 12:50:00,
2013-07-09 08:55:00,70.9,69.1,30.03,N/A,-737280,0.0,0.0,94,0.00,,,0.00,Wunderground v.1.13,2013-07-09 12:55:00,
2013-07-09 09:00:00,71.0,69.2,30.03,SW,225,0.0,1.0,94,0.00,,,0.00,Wunderground v.1.13,2013-07-09 13:00:00,
2013-07-09 09:05:00,71.0,69.2,30.03,SW,225,1.0,4.0,94,0.00,,,0.00,Wunderground v.1.13,2013-07-09 13:05:00,
2013-07-09 09:10:00,71.2,69.4,30.03,SW,225,1.0,2.0,94,0.00,,,0.00,Wunderground v.1.13,2013-07-09 13:10:00,
2013-07-09 09:15:00,71.4,69.6,30.03,SW,225,0.0,1.0,94,0.00,,,0.00,Wunderground v.1.13,2013-07-09 13:15:00,
2013-07-09 09:20:00,71.7,69.9,30.03,SW,225,0.0,2.0,94,0.00,,,0.00,Wunderground v.1.13,2013-07-09 13:20:00,
2013-07-09 09:25:00,71.9,69.8,30.04,SW,225,1.0,3.0,93,0.00,,,0.00,Wunderground v.1.13,2013-07-09 13:25:00,
2013-07-09 09:30:00,72.0,69.9,30.03,SW,225,1.0,3.0,93,0.00,,,0.00,Wunderground v.1.13,2013-07-09 13:30:00,
2013-07-09 09:35:00,72.2,69.4,30.03,SW,225,1.0,5.0,91,0.00,,,0.00,Wunderground v.1.13,2013-07-09 13:35:00,
2013-07-09 09:40:00,72.5,70.0,30.03,SW,225,3.0,6.0,92,0.00,,,0.00,Wunderground v.1.13,2013-07-09 13:40:00,
2013-07-09 09:45:00,72.5,69.7,30.03,SW,225,0.0,2.0,91,0.00,,,0.00,Wunderground v.1.13,2013-07-09 13:45:00,
2013-07-09 09:50:00,72.4,69.6,30.04,SSW,203,3.0,8.0,91,0.00,,,0.00,Wunderground v.1.13,2013-07-09 13:50:00,
2013-07-09 09:55:00,72.3,69.5,30.04,SSW,203,3.0,9.0,91,0.00,,,0.00,Wunderground v.1.13,2013-07-09 13:55:00,
2013-07-09 10:00:00,72.1,69.3,30.03,South,180,1.0,2.0,91,0.00,,,0.00,Wunderground v.1.13,2013-07-09 14:00:00,
2013-07-09 10:05:00,72.5,69.4,30.03,South,180,2.0,6.0,90,0.00,,,0.00,Wunderground v.1.13,2013-07-09 14:05:00,
2013-07-09 10:10:00,73.0,69.6,30.03,SSW,203,1.0,3.0,89,0.00,,,0.00,Wunderground v.1.13,2013-07-09 14:10:00,
2013-07-09 10:15:00,73.0,69.6,30.03,SSW,203,2.0,6.0,89,0.00,,,0.00,Wunderground v.1.13,2013-07-09 14:15:00,
2013-07-09 10:20:00,73.8,70.0,30.03,SW,225,0.0,1.0,88,0.00,,,0.00,Wunderground v.1.13,2013-07-09 14:20:00,
2013-07-09 10:25:00,75.0,70.5,30.03,SSW,203,3.0,5.0,86,0.00,,,0.00,Wunderground v.1.13,2013-07-09 14:25:00,
2013-07-09 10:30:00,74.9,70.1,30.03,SW,225,3.0,5.0,85,0.00,,,0.00,Wunderground v.1.13,2013-07-09 14:30:00,
2013-07-09 10:35:00,75.1,70.3,30.03,SSW,203,4.0,10.0,85,0.00,,,0.00,Wunderground v.1.13,2013-07-09 14:35:00,
2013-07-09 10:40:00,75.4,70.6,30.03,WSW,248,3.0,8.0,85,0.00,,,0.00,Wunderground v.1.13,2013-07-09 14:40:00,
2013-07-09 10:45:00,75.1,69.9,30.03,SSW,203,4.0,9.0,84,0.00,,,0.00,Wunderground v.1.13,2013-07-09 14:45:00,
2013-07-09 10:50:00,75.1,69.9,30.03,South,180,4.0,10.0,84,0.00,,,0.00,Wunderground v.1.13,2013-07-09 14:50:00,
2013-07-09 10:55:00,75.1,69.9,30.03,SSW,203,5.0,7.0,84,0.00,,,0.00,Wunderground v.1.13,2013-07-09 14:55:00,
2013-07-09 11:00:00,75.2,69.7,30.02,SSW,203,5.0,15.0,83,0.00,,,0.00,Wunderground v.1.13,2013-07-09 15:00:00,
2013-07-09 11:05:00,75.8,70.6,30.02,WSW,248,1.0,5.0,84,0.00,,,0.00,Wunderground v.1.13,2013-07-09 15:05:00,
2013-07-09 11:10:00,76.0,71.2,30.03,SW,225,4.0,7.0,85,0.00,,,0.00,Wunderground v.1.13,2013-07-09 15:10:00,
2013-07-09 11:15:00,75.7,70.2,30.03,South,180,5.0,8.0,83,0.00,,,0.00,Wunderground v.1.13,2013-07-09 15:15:00,
2013-07-09 11:20:00,75.4,70.2,30.03,WNW,293,0.0,1.0,84,0.00,,,0.00,Wunderground v.1.13,2013-07-09 15:20:00,
2013-07-09 11:25:00,76.1,71.6,30.03,SW,225,5.0,8.0,86,0.00,,,0.00,Wunderground v.1.13,2013-07-09 15:25:00,
2013-07-09 11:30:00,76.3,70.8,30.03,SW,225,6.0,12.0,83,0.00,,,0.00,Wunderground v.1.13,2013-07-09 15:30:00,
2013-07-09 11:35:00,76.5,70.9,30.02,SSW,203,1.0,2.0,83,0.00,,,0.00,Wunderground v.1.13,2013-07-09 15:35:00,
2013-07-09 11:40:00,77.1,71.2,30.02,SSW,203,6.0,8.0,82,0.00,,,0.00,Wunderground v.1.13,2013-07-09 15:40:00,
2013-07-09 11:45:00,77.0,70.4,30.02,SW,225,0.0,2.0,80,0.00,,,0.00,Wunderground v.1.13,2013-07-09 15:45:00,
2013-07-09 11:50:00,77.2,70.9,30.02,SSW,203,2.0,6.0,81,0.00,,,0.00,Wunderground v.1.13,2013-07-09 15:50:00,
2013-07-09 11:55:00,77.6,70.9,30.02,South,180,3.0,6.0,80,0.00,,,0.00,Wunderground v.1.13,2013-07-09 15:55:00,
2013-07-09 12:00:00,77.8,71.5,30.01,SSW,203,6.0,10.0,81,0.00,,,0.00,Wunderground v.1.13,2013-07-09 16:00:00,
2013-07-09 12:05:00,77.5,70.8,30.02,SSW,203,2.0,4.0,80,0.00,,,0.00,Wunderground v.1.13,2013-07-09 16:05:00,
2013-07-09 12:10:00,77.8,71.5,30.02,SSW,203,3.0,9.0,81,0.00,,,0.00,Wunderground v.1.13,2013-07-09 16:10:00,
2013-07-09 12:15:00,77.9,72.0,30.01,South,180,4.0,8.0,82,0.00,,,0.00,Wunderground v.1.13,2013-07-09 16:15:00,
2013-07-09 12:20:00,78.0,71.0,30.01,WSW,248,3.0,6.0,79,0.00,,,0.00,Wunderground v.1.13,2013-07-09 16:20:00,
2013-07-09 12:25:00,78.1,71.8,30.01,South,180,5.0,11.0,81,0.00,,,0.00,Wunderground v.1.13,2013-07-09 16:25:00,
2013-07-09 12:30:00,78.1,71.4,30.01,SW,225,5.0,12.0,80,0.00,,,0.00,Wunderground v.1.13,2013-07-09 16:30:00,
2013-07-09 12:35:00,78.0,71.3,30.01,SW,225,3.0,8.0,80,0.00,,,0.00,Wunderground v.1.13,2013-07-09 16:35:00,
2013-07-09 12:40:00,77.8,71.1,30.01,SW,225,2.0,4.0,80,0.00,,,0.00,Wunderground v.1.13,2013-07-09 16:40:00,
2013-07-09 12:45:00,77.7,71.4,30.01,SSW,203,2.0,5.0,81,0.00,,,0.00,Wunderground v.1.13,2013-07-09 16:45:00,
2013-07-09 12:50:00,78.3,72.3,30.01,SSE,158,5.0,11.0,82,0.00,,,0.00,Wunderground v.1.13,2013-07-09 16:50:00,
2013-07-09 12:55:00,79.1,72.4,30.01,SSE,158,3.0,6.0,80,0.00,,,0.00,Wunderground v.1.13,2013-07-09 16:55:00,
2013-07-09 13:00:00,79.1,73.1,30.01,South,180,4.0,7.0,82,0.00,,,0.00,Wunderground v.1.13,2013-07-09 17:00:00,
2013-07-09 13:05:00,79.0,71.9,30.00,SW,225,4.0,8.0,79,0.00,,,0.00,Wunderground v.1.13,2013-07-09 17:05:00,
2013-07-09 13:10:00,78.2,71.5,30.00,SW,225,2.0,7.0,80,0.00,,,0.00,Wunderground v.1.13,2013-07-09 17:10:00,
2013-07-09 13:15:00,78.0,72.1,30.00,WSW,248,1.0,2.0,82,0.00,,,0.00,Wunderground v.1.13,2013-07-09 17:15:00,
2013-07-09 13:20:00,77.8,71.9,30.00,SW,225,1.0,4.0,82,0.00,,,0.00,Wunderground v.1.13,2013-07-09 17:20:00,
2013-07-09 13:25:00,78.3,72.7,30.00,SSW,203,0.0,2.0,83,0.00,,,0.00,Wunderground v.1.13,2013-07-09 17:25:00,
2013-07-09 13:30:00,79.1,72.8,29.99,SSW,203,5.0,8.0,81,0.00,,,0.00,Wunderground v.1.13,2013-07-09 17:30:00,
2013-07-09 13:35:00,79.3,72.6,30.00,SW,225,2.0,7.0,80,0.00,,,0.00,Wunderground v.1.13,2013-07-09 17:35:00,
2013-07-09 13:40:00,78.5,71.8,29.99,SSW,203,0.0,1.0,80,0.00,,,0.00,Wunderground v.1.13,2013-07-09 17:40:00,
2013-07-09 13:45:00,78.1,71.8,29.99,WSW,248,0.0,2.0,81,0.00,,,0.00,Wunderground v.1.13,2013-07-09 17:45:00,
2013-07-09 13:50:00,78.4,72.4,29.99,SSW,203,2.0,5.0,82,0.00,,,0.00,Wunderground v.1.13,2013-07-09 17:50:00,
2013-07-09 13:55:00,78.0,72.1,29.99,SSW,203,2.0,7.0,82,0.00,,,0.00,Wunderground v.1.13,2013-07-09 17:55:00,
2013-07-09 14:00:00,77.8,72.6,29.99,SSW,203,2.0,7.0,84,0.00,,,0.00,Wunderground v.1.13,2013-07-09 18:00:00,
2013-07-09 14:05:00,77.6,72.0,29.99,SSW,203,0.0,2.0,83,0.00,,,0.00,Wunderground v.1.13,2013-07-09 18:05:00,
2013-07-09 14:10:00,77.7,72.1,29.99,SSW,203,1.0,1.0,83,0.00,,,0.00,Wunderground v.1.13,2013-07-09 18:10:00,
2013-07-09 14:15:00,77.9,72.7,29.99,SW,225,3.0,9.0,84,0.00,,,0.00,Wunderground v.1.13,2013-07-09 18:15:00,
2013-07-09 14:20:00,77.4,72.2,29.98,SW,225,0.0,1.0,84,0.00,,,0.00,Wunderground v.1.13,2013-07-09 18:20:00,
2013-07-09 14:25:00,77.1,72.2,29.98,SSW,203,1.0,5.0,85,0.00,,,0.00,Wunderground v.1.13,2013-07-09 18:25:00,
2013-07-09 14:30:00,77.4,72.5,29.98,SSW,203,1.0,2.0,85,0.00,,,0.00,Wunderground v.1.13,2013-07-09 18:30:00,
2013-07-09 14:35:00,77.4,72.2,29.98,N/A,-737280,0.0,0.0,84,0.00,,,0.00,Wunderground v.1.13,2013-07-09 18:35:00,
2013-07-09 14:40:00,77.8,72.2,29.97,SSW,203,2.0,4.0,83,0.00,,,0.00,Wunderground v.1.13,2013-07-09 18:40:00,
2013-07-09 14:45:00,78.2,72.6,29.97,N/A,-737280,0.0,0.0,83,0.00,,,0.00,Wunderground v.1.13,2013-07-09 18:45:00,
2013-07-09 14:50:00,78.2,72.6,29.97,SW,225,2.0,5.0,83,0.00,,,0.00,Wunderground v.1.13,2013-07-09 18:50:00,
2013-07-09 14:55:00,78.6,73.4,29.97,SW,225,0.0,1.0,84,0.00,,,0.00,Wunderground v.1.13,2013-07-09 18:55:00,
2013-07-09 15:00:00,78.9,73.3,29.96,SW,225,0.0,1.0,83,0.00,,,0.00,Wunderground v.1.13,2013-07-09 19:00:00,
2013-07-09 15:05:00,79.2,73.6,29.96,SW,225,1.0,3.0,83,0.00,,,0.00,Wunderground v.1.13,2013-07-09 19:05:00,
2013-07-09 15:10:00,79.3,73.3,29.96,SW,225,2.0,3.0,82,0.00,,,0.00,Wunderground v.1.13,2013-07-09 19:10:00,
2013-07-09 15:15:00,79.4,73.4,29.95,SW,225,0.0,1.0,82,0.00,,,0.00,Wunderground v.1.13,2013-07-09 19:15:00,
2013-07-09 15:20:00,79.5,73.2,29.95,SW,225,2.0,4.0,81,0.00,,,0.00,Wunderground v.1.13,2013-07-09 19:20:00,
2013-07-09 15:25:00,79.6,73.3,29.95,SSW,203,0.0,1.0,81,0.00,,,0.00,Wunderground v.1.13,2013-07-09 19:25:00,
2013-07-09 15:30:00,79.9,73.5,29.95,South,180,7.0,10.0,81,0.00,,,0.00,Wunderground v.1.13,2013-07-09 19:30:00,
2013-07-09 15:35:00,79.6,72.9,29.95,SSW,203,3.0,7.0,80,0.00,,,0.00,Wunderground v.1.13,2013-07-09 19:35:00,
2013-07-09 15:40:00,79.9,73.2,29.95,SW,225,1.0,2.0,80,0.00,,,0.00,Wunderground v.1.13,2013-07-09 19:40:00,
2013-07-09 15:45:00,80.5,73.8,29.95,SW,225,0.0,2.0,80,0.00,,,0.00,Wunderground v.1.13,2013-07-09 19:45:00,
2013-07-09 15:50:00,80.5,73.8,29.95,SW,225,1.0,3.0,80,0.00,,,0.00,Wunderground v.1.13,2013-07-09 19:50:00,
2013-07-09 15:55:00,80.0,73.3,29.95,SSW,203,0.0,1.0,80,0.00,,,0.00,Wunderground v.1.13,2013-07-09 19:55:00,
2013-07-09 16:00:00,79.4,73.1,29.95,N/A,-737280,0.0,0.0,81,0.00,,,0.00,Wunderground v.1.13,2013-07-09 20:00:00,
2013-07-09 16:05:00,79.3,73.0,29.94,SW,225,2.0,6.0,81,0.00,,,0.00,Wunderground v.1.13,2013-07-09 20:05:00,
2013-07-09 16:10:00,79.1,73.1,29.95,SW,225,0.0,2.0,82,0.00,,,0.00,Wunderground v.1.13,2013-07-09 20:10:00,
2013-07-09 16:15:00,78.9,73.7,29.95,SW,225,0.0,1.0,84,0.00,,,0.00,Wunderground v.1.13,2013-07-09 20:15:00,
2013-07-09 16:20:00,79.2,73.6,29.95,SW,225,2.0,6.0,83,0.00,,,0.00,Wunderground v.1.13,2013-07-09 20:20:00,
2013-07-09 16:25:00,80.2,73.8,29.94,SW,225,0.0,1.0,81,0.00,,,0.00,Wunderground v.1.13,2013-07-09 20:25:00,
2013-07-09 16:30:00,80.5,73.8,29.94,N/A,-737280,0.0,0.0,80,0.00,,,0.00,Wunderground v.1.13,2013-07-09 20:30:00,
2013-07-09 16:35:00,80.2,73.5,29.94,SW,225,1.0,3.0,80,0.00,,,0.00,Wunderground v.1.13,2013-07-09 20:35:00,
2013-07-09 16:40:00,79.7,73.7,29.95,SW,225,0.0,1.0,82,0.00,,,0.00,Wunderground v.1.13,2013-07-09 20:40:00,
2013-07-09 16:45:00,79.5,73.9,29.95,SW,225,1.0,3.0,83,0.00,,,0.00,Wunderground v.1.13,2013-07-09 20:45:00,
2013-07-09 16:50:00,79.2,73.9,29.95,N/A,-737280,0.0,0.0,84,0.00,,,0.00,Wunderground v.1.13,2013-07-09 20:50:00,
2013-07-09 16:55:00,78.9,73.7,29.95,N/A,-737280,0.0,0.0,84,0.00,,,0.00,Wunderground v.1.13,2013-07-09 20:55:00,
2013-07-09 17:00:00,79.6,74.0,29.95,N/A,-737280,0.0,0.0,83,0.00,,,0.00,Wunderground v.1.13,2013-07-09 21:00:00,
2013-07-09 17:05:00,79.9,73.9,29.95,SW,225,0.0,1.0,82,0.00,,,0.00,Wunderground v.1.13,2013-07-09 21:05:00,
2013-07-09 17:10:00,79.8,73.4,29.95,SW,225,1.0,2.0,81,0.00,,,0.00,Wunderground v.1.13,2013-07-09 21:10:00,
2013-07-09 17:15:00,79.6,73.6,29.95,SW,225,1.0,2.0,82,0.00,,,0.00,Wunderground v.1.13,2013-07-09 21:15:00,
2013-07-09 17:20:00,79.5,73.5,29.95,N/A,-737280,0.0,0.0,82,0.00,,,0.00,Wunderground v.1.13,2013-07-09 21:20:00,
2013-07-09 17:25:00,79.4,73.4,29.95,SW,225,0.0,2.0,82,0.00,,,0.00,Wunderground v.1.13,2013-07-09 21:25:00,
2013-07-09 17:30:00,78.9,74.0,29.96,N/A,-737280,0.0,0.0,85,0.00,,,0.00,Wunderground v.1.13,2013-07-09 21:30:00,
2013-07-09 17:35:00,78.3,73.8,29.96,N/A,-737280,0.0,0.0,86,0.00,,,0.00,Wunderground v.1.13,2013-07-09 21:35:00,
2013-07-09 17:40:00,77.9,74.1,29.96,N/A,-737280,0.0,0.0,88,0.00,,,0.00,Wunderground v.1.13,2013-07-09 21:40:00,
2013-07-09 17:45:00,78.0,73.8,29.96,N/A,-737280,0.0,0.0,87,0.00,,,0.00,Wunderground v.1.13,2013-07-09 21:45:00,
2013-07-09 17:50:00,77.9,74.1,29.95,N/A,-737280,0.0,0.0,88,0.00,,,0.00,Wunderground v.1.13,2013-07-09 21:50:00,
2013-07-09 17:55:00,77.2,73.7,29.95,N/A,-737280,0.0,0.0,89,0.00,,,0.00,Wunderground v.1.13,2013-07-09 21:55:00,
2013-07-09 18:00:00,76.8,73.6,29.95,N/A,-737280,0.0,0.0,90,0.00,,,0.00,Wunderground v.1.13,2013-07-09 22:00:00,
2013-07-09 18:05:00,76.3,73.5,29.95,N/A,-737280,0.0,0.0,91,0.00,,,0.00,Wunderground v.1.13,2013-07-09 22:05:00,
2013-07-09 18:10:00,75.8,73.3,29.95,N/A,-737280,0.0,0.0,92,0.00,,,0.00,Wunderground v.1.13,2013-07-09 22:10:00,
2013-07-09 18:15:00,75.5,73.0,29.95,N/A,-737280,0.0,0.0,92,0.00,,,0.00,Wunderground v.1.13,2013-07-09 22:15:00,
2013-07-09 18:20:00,75.1,72.9,29.94,N/A,-737280,0.0,0.0,93,0.00,,,0.00,Wunderground v.1.13,2013-07-09 22:20:00,
2013-07-09 18:25:00,74.8,72.6,29.94,N/A,-737280,0.0,0.0,93,0.00,,,0.00,Wunderground v.1.13,2013-07-09 22:25:00,
2013-07-09 18:30:00,74.4,72.6,29.95,N/A,-737280,0.0,0.0,94,0.00,,,0.00,Wunderground v.1.13,2013-07-09 22:30:00,
2013-07-09 18:35:00,74.1,72.3,29.95,N/A,-737280,0.0,0.0,94,0.00,,,0.00,Wunderground v.1.13,2013-07-09 22:35:00,
2013-07-09 18:40:00,73.9,72.4,29.95,N/A,-737280,0.0,0.0,95,0.00,,,0.00,Wunderground v.1.13,2013-07-09 22:40:00,
2013-07-09 18:45:00,73.7,72.2,29.95,N/A,-737280,0.0,0.0,95,0.00,,,0.00,Wunderground v.1.13,2013-07-09 22:45:00,
2013-07-09 18:50:00,73.6,72.1,29.95,N/A,-737280,0.0,0.0,95,0.00,,,0.00,Wunderground v.1.13,2013-07-09 22:50:00,
2013-07-09 18:55:00,73.4,71.9,29.95,N/A,-737280,0.0,0.0,95,0.00,,,0.00,Wunderground v.1.13,2013-07-09 22:55:00,
2013-07-09 19:00:00,73.2,71.7,29.96,N/A,-737280,0.0,0.0,95,0.00,,,0.00,Wunderground v.1.13,2013-07-09 23:00:00,
2013-07-09 19:05:00,73.0,71.8,29.96,N/A,-737280,0.0,0.0,96,0.00,,,0.00,Wunderground v.1.13,2013-07-09 23:05:00,
2013-07-09 19:10:00,73.1,71.9,29.96,N/A,-737280,0.0,0.0,96,0.00,,,0.00,Wunderground v.1.13,2013-07-09 23:10:00,
2013-07-09 19:15:00,73.3,72.1,29.97,N/A,-737280,0.0,0.0,96,0.00,,,0.00,Wunderground v.1.13,2013-07-09 23:15:00,
2013-07-09 19:20:00,73.8,72.6,29.98,N/A,-737280,0.0,0.0,96,0.00,,,0.00,Wunderground v.1.13,2013-07-09 23:20:00,
2013-07-09 19:25:00,74.2,72.7,29.98,SSW,203,0.0,1.0,95,0.00,,,0.00,Wunderground v.1.13,2013-07-09 23:25:00,
2013-07-09 19:30:00,74.1,72.3,30.00,WSW,248,0.0,1.0,94,0.00,,,0.00,Wunderground v.1.13,2013-07-09 23:30:00,
2013-07-09 19:35:00,73.2,70.4,30.01,WSW,248,1.0,3.0,91,0.00,,,0.00,Wunderground v.1.13,2013-07-09 23:35:00,
2013-07-09 19:40:00,71.9,69.1,30.00,N/A,-737280,0.0,0.0,91,0.00,,,0.00,Wunderground v.1.13,2013-07-09 23:40:00,
2013-07-09 19:45:00,71.3,69.2,30.00,WSW,248,1.0,3.0,93,0.00,,,0.00,Wunderground v.1.13,2013-07-09 23:45:00,
2013-07-09 19:50:00,71.2,69.4,30.00,WSW,248,0.0,1.0,94,0.00,,,0.00,Wunderground v.1.13,2013-07-09 23:50:00,
2013-07-09 19:55:00,71.0,69.2,30.00,WSW,248,0.0,1.0,94,0.00,,,0.00,Wunderground v.1.13,2013-07-09 23:55:00,
2013-07-09 20:00:00,71.0,69.5,30.00,N/A,-737280,0.0,0.0,95,0.00,,,0.00,Wunderground v.1.13,2013-07-10 00:00:00,
2013-07-09 20:05:00,71.0,69.5,30.00,N/A,-737280,0.0,0.0,95,0.00,,,0.00,Wunderground v.1.13,2013-07-10 00:05:00,
2013-07-09 20:10:00,70.9,69.4,30.00,N/A,-737280,0.0,0.0,95,0.00,,,0.00,Wunderground v.1.13,2013-07-10 00:10:00,
2013-07-09 20:15:00,70.8,69.3,30.00,N/A,-737280,0.0,0.0,95,0.00,,,0.00,Wunderground v.1.13,2013-07-10 00:15:00,
2013-07-09 20:20:00,70.8,69.6,30.00,N/A,-737280,0.0,0.0,96,0.00,,,0.00,Wunderground v.1.13,2013-07-10 00:20:00,
2013-07-09 20:25:00,70.8,69.6,29.99,N/A,-737280,0.0,0.0,96,0.00,,,0.00,Wunderground v.1.13,2013-07-10 00:25:00,
2013-07-09 20:30:00,70.8,69.6,29.99,N/A,-737280,0.0,0.0,96,0.00,,,0.00,Wunderground v.1.13,2013-07-10 00:30:00,
2013-07-09 20:35:00,70.6,69.4,29.98,WSW,248,0.0,1.0,96,0.00,,,0.00,Wunderground v.1.13,2013-07-10 00:35:00,
2013-07-09 20:40:00,70.6,69.4,29.98,N/A,-737280,0.0,0.0,96,0.00,,,0.00,Wunderground v.1.13,2013-07-10 00:40:00,
2013-07-09 20:45:00,70.7,69.5,29.98,N/A,-737280,0.0,0.0,96,0.00,,,0.00,Wunderground v.1.13,2013-07-10 00:45:00,
2013-07-09 20:50:00,70.7,69.5,29.99,N/A,-737280,0.0,0.0,96,0.00,,,0.00,Wunderground v.1.13,2013-07-10 00:50:00,
2013-07-09 20:55:00,70.7,69.8,29.99,N/A,-737280,0.0,0.0,97,0.00,,,0.00,Wunderground v.1.13,2013-07-10 00:55:00,
2013-07-09 21:00:00,70.8,69.9,29.99,N/A,-737280,0.0,0.0,97,0.00,,,0.00,Wunderground v.1.13,2013-07-10 01:00:00,
2013-07-09 21:05:00,70.9,70.0,29.98,WSW,248,0.0,1.0,97,0.00,,,0.00,Wunderground v.1.13,2013-07-10 01:05:00,
2013-07-09 21:10:00,70.8,69.9,29.98,N/A,-737280,0.0,0.0,97,0.00,,,0.00,Wunderground v.1.13,2013-07-10 01:10:00,
2013-07-09 21:15:00,70.7,69.5,29.98,WSW,248,0.0,1.0,96,0.00,,,0.00,Wunderground v.1.13,2013-07-10 01:15:00,
2013-07-09 21:20:00,70.6,69.4,29.98,WSW,248,0.0,1.0,96,0.00,,,0.00,Wunderground v.1.13,2013-07-10 01:20:00,
2013-07-09 21:25:00,70.6,69.4,29.98,WSW,248,0.0,1.0,96,0.00,,,0.00,Wunderground v.1.13,2013-07-10 01:25:00,
2013-07-09 21:30:00,70.6,69.4,29.98,WSW,248,0.0,1.0,96,0.00,,,0.00,Wunderground v.1.13,2013-07-10 01:30:00,
2013-07-09 21:35:00,70.6,69.4,29.98,WSW,248,0.0,1.0,96,0.00,,,0.00,Wunderground v.1.13,2013-07-10 01:35:00,
2013-07-09 21:40:00,70.7,69.5,29.98,WSW,248,0.0,1.0,96,0.00,,,0.00,Wunderground v.1.13,2013-07-10 01:40:00,
2013-07-09 21:45:00,70.7,69.5,29.99,N/A,-737280,0.0,0.0,96,0.00,,,0.00,Wunderground v.1.13,2013-07-10 01:45:00,
2013-07-09 21:50:00,70.7,69.5,29.99,N/A,-737280,0.0,0.0,96,0.00,,,0.00,Wunderground v.1.13,2013-07-10 01:50:00,
2013-07-09 21:55:00,70.6,69.4,29.99,N/A,-737280,0.0,0.0,96,0.00,,,0.00,Wunderground v.1.13,2013-07-10 01:55:00,
2013-07-09 22:00:00,70.6,69.4,29.99,N/A,-737280,0.0,0.0,96,0.00,,,0.00,Wunderground v.1.13,2013-07-10 02:00:00,
2013-07-09 22:05:00,70.7,69.5,29.99,WSW,248,0.0,1.0,96,0.00,,,0.00,Wunderground v.1.13,2013-07-10 02:05:00,
2013-07-09 22:10:00,70.6,69.1,29.98,WSW,248,0.0,1.0,95,0.00,,,0.00,Wunderground v.1.13,2013-07-10 02:10:00,
2013-07-09 22:15:00,70.5,69.0,29.98,WSW,248,0.0,1.0,95,0.00,,,0.00,Wunderground v.1.13,2013-07-10 02:15:00,
2013-07-09 22:20:00,70.4,68.9,29.98,N/A,-737280,0.0,0.0,95,0.00,,,0.00,Wunderground v.1.13,2013-07-10 02:20:00,
2013-07-09 22:25:00,70.3,68.8,29.98,N/A,-737280,0.0,0.0,95,0.00,,,0.00,Wunderground v.1.13,2013-07-10 02:25:00,
2013-07-09 22:30:00,70.2,68.7,29.97,WSW,248,0.0,1.0,95,0.00,,,0.00,Wunderground v.1.13,2013-07-10 02:30:00,
2013-07-09 22:35:00,70.1,68.6,29.97,N/A,-737280,0.0,0.0,95,0.00,,,0.00,Wunderground v.1.13,2013-07-10 02:35:00,
2013-07-09 22:40:00,70.1,68.6,29.98,WSW,248,0.0,1.0,95,0.00,,,0.00,Wunderground v.1.13,2013-07-10 02:40:00,
2013-07-09 22:45:00,70.1,68.6,29.98,N/A,-737280,0.0,0.0,95,0.00,,,0.00,Wunderground v.1.13,2013-07-10 02:45:00,
2013-07-09 22:50:00,70.0,68.5,29.98,N/A,-737280,0.0,0.0,95,0.00,,,0.00,Wunderground v.1.13,2013-07-10 02:50:00,
2013-07-09 22:55:00,69.9,68.4,29.98,N/A,-737280,0.0,0.0,95,0.00,,,0.00,Wunderground v.1.13,2013-07-10 02:55:00,
2013-07-09 23:00:00,69.9,68.4,29.98,WSW,248,0.0,1.0,95,0.00,,,0.00,Wunderground v.1.13,2013-07-10 03:00:00,
2013-07-09 23:05:00,69.9,68.4,29.98,WSW,248,0.0,2.0,95,0.00,,,0.00,Wunderground v.1.13,2013-07-10 03:05:00,
2013-07-09 23:10:00,70.0,68.5,29.98,WSW,248,0.0,2.0,95,0.00,,,0.00,Wunderground v.1.13,2013-07-10 03:10:00,
2013-07-09 23:15:00,70.1,68.6,29.98,SW,225,2.0,6.0,95,0.00,,,0.00,Wunderground v.1.13,2013-07-10 03:15:00,
2013-07-09 23:20:00,70.1,68.3,29.98,SW,225,0.0,1.0,94,0.00,,,0.00,Wunderground v.1.13,2013-07-10 03:20:00,
2013-07-09 23:25:00,70.1,68.3,29.98,SW,225,1.0,5.0,94,0.00,,,0.00,Wunderground v.1.13,2013-07-10 03:25:00,
2013-07-09 23:30:00,70.1,68.3,29.98,N/A,-737280,0.0,0.0,94,0.00,,,0.00,Wunderground v.1.13,2013-07-10 03:30:00,
2013-07-09 23:35:00,70.1,68.3,29.98,WSW,248,2.0,5.0,94,0.00,,,0.00,Wunderground v.1.13,2013-07-10 03:35:00,
2013-07-09 23:40:00,70.1,68.3,29.98,WSW,248,2.0,6.0,94,0.00,,,0.00,Wunderground v.1.13,2013-07-10 03:40:00,
2013-07-09 23:45:00,70.1,68.3,29.98,N/A,-737280,0.0,0.0,94,0.00,,,0.00,Wunderground v.1.13,2013-07-10 03:45:00,
2013-07-09 23:50:00,70.1,68.3,29.98,N/A,-737280,0.0,0.0,94,0.00,,,0.00,Wunderground v.1.13,2013-07-10 03:50:00,
2013-07-09 23:55:00,70.0,68.2,29.98,WSW,248,2.0,6.0,94,0.00,,,0.00,Wunderground v.1.13,2013-07-10 03:55:00,